createdAt,value
2023-03-26T00:03:21.345Z,99399.63
2023-03-26T00:07:21.666Z,99399.36
2023-03-26T00:11:22.365Z,99391.75
2023-03-26T00:15:21.569Z,99382.15
2023-03-26T00:19:21.804Z,99381.44
2023-03-26T00:31:21.323Z,99357.03
2023-03-26T00:39:22.869Z,99347.86
2023-03-26T00:43:22.683Z,99340.88
2023-03-26T00:47:21.841Z,99326.34000000001
2023-03-26T00:51:21.190Z,99321.17
2023-03-26T00:55:22.390Z,99312.89
2023-03-26T00:59:21.604Z,99307.62
2023-03-26T01:03:27.784Z,99298.92
2023-03-26T01:07:27.978Z,99292.90999999999
2023-03-26T01:11:24.888Z,99285.70999999999
2023-03-26T01:15:21.113Z,99281.31
2023-03-26T01:19:25.976Z,99270.6
2023-03-26T01:23:29.934Z,99270.15
2023-03-26T01:27:30.959Z,99265.17
2023-03-26T01:31:28.794Z,99258.79
2023-03-26T01:35:31.533Z,99252.70000000001
2023-03-26T01:43:29.461Z,99245.45000000001
2023-03-26T01:47:21.901Z,99234.31
2023-03-26T01:51:27.050Z,99227.29000000001
2023-03-26T01:55:26.836Z,99222.97
2023-03-26T01:59:31.130Z,99218.52
2023-03-26T02:03:26.809Z,99208.65
2023-03-26T02:07:27.697Z,99202.70000000001
2023-03-26T02:11:23.121Z,99197.38
2023-03-26T02:15:21.576Z,99192.04999999999
2023-03-26T02:23:21.353Z,99177.06
2023-03-26T02:27:21.279Z,99173.42
2023-03-26T02:35:21.948Z,99152.73
2023-03-26T02:39:21.496Z,99148.81
2023-03-26T02:47:21.817Z,99137.98000000001
2023-03-26T02:59:22.032Z,99123.11
2023-03-26T03:03:23.238Z,99116.95999999999
2023-03-26T03:11:23.589Z,99104.06
2023-03-26T03:27:22.882Z,99090.19
2023-03-26T03:39:21.787Z,99082.83
2023-03-26T03:47:21.844Z,99085.6
2023-03-26T03:51:22.075Z,99080.92
2023-03-26T03:55:23.017Z,99084.63
2023-03-26T03:59:21.539Z,99087.19
2023-03-26T04:03:33.845Z,99079.61
2023-03-26T04:07:21.696Z,99081.23000000001
2023-03-26T04:15:22.006Z,99074.75
2023-03-26T04:19:21.744Z,99071.23
2023-03-26T04:27:27.249Z,99064.69
2023-03-26T04:31:27.995Z,99064.76
2023-03-26T04:35:22.675Z,99060.25
2023-03-26T04:43:21.746Z,99061.8
2023-03-26T04:51:26.114Z,99062.01999999999
2023-03-26T04:55:26.717Z,99061.47
2023-03-26T04:59:25.381Z,99067.13
2023-03-26T05:03:21.831Z,99063.86
2023-03-26T05:07:22.788Z,99069.37000000001
2023-03-26T05:15:22.194Z,99071.86
2023-03-26T05:19:21.964Z,99071.83
2023-03-26T05:23:21.894Z,99071.31000000001
2023-03-26T05:27:21.841Z,99069.67
2023-03-26T05:31:21.972Z,99077.75
2023-03-26T05:35:21.839Z,99080.26
2023-03-26T05:39:25.360Z,99076.78
2023-03-26T05:43:21.823Z,99075.76000000001
2023-03-26T05:47:22.206Z,99072.24
2023-03-26T05:51:22.458Z,99072.88
2023-03-26T05:55:22.123Z,99074.19
2023-03-26T05:59:21.929Z,99073.75
2023-03-26T06:03:22.362Z,99073.35
2023-03-26T06:07:21.944Z,99078.49
2023-03-26T06:11:22.182Z,99077.31
2023-03-26T06:15:22.649Z,99078.01
2023-03-26T06:19:22.516Z,99078.34
2023-03-26T06:23:22.178Z,99076.85
2023-03-26T06:27:22.186Z,99079.58
2023-03-26T06:31:22.014Z,99082.19
2023-03-26T06:35:22.119Z,99086.65999999999
2023-03-26T06:39:22.137Z,99088.07
2023-03-26T06:43:22.099Z,99096.44
2023-03-26T06:47:22.078Z,99101.34000000001
2023-03-26T06:51:22.223Z,99101.07
2023-03-26T06:55:22.860Z,99109.41
2023-03-26T06:59:22.408Z,99114.92
2023-03-26T07:11:24.514Z,99142.72
2023-03-26T07:15:22.236Z,99156.44
2023-03-26T07:19:22.278Z,99158.37
2023-03-26T07:23:22.718Z,99168.0
2023-03-26T07:27:33.589Z,99173.01999999999
2023-03-26T07:31:28.773Z,99176.65
2023-03-26T07:35:28.759Z,99181.52
2023-03-26T07:39:37.459Z,99187.51999999999
2023-03-26T07:43:38.469Z,99193.09
2023-03-26T07:47:27.877Z,99200.73
2023-03-26T07:55:23.562Z,99211.41
2023-03-26T08:03:37.718Z,99220.92
2023-03-26T08:07:29.154Z,99229.1
2023-03-26T08:11:32.893Z,99229.66
2023-03-26T08:19:36.784Z,99239.37
2023-03-26T08:23:28.879Z,99250.54000000001
2023-03-26T08:31:31.969Z,99262.55
2023-03-26T08:35:22.821Z,99268.29000000001
2023-03-26T08:39:22.598Z,99271.7
2023-03-26T08:43:42.129Z,99277.58
2023-03-26T08:51:42.139Z,99289.23
2023-03-26T08:55:39.551Z,99298.06999999999
2023-03-26T08:59:42.180Z,99304.04999999999
2023-03-26T09:07:42.269Z,99314.86
2023-03-26T09:11:42.230Z,99318.0
2023-03-26T09:15:39.199Z,99329.36
2023-03-26T09:19:40.244Z,99338.83
2023-03-26T09:23:41.658Z,99343.75
2023-03-26T09:27:37.159Z,99346.45000000001
2023-03-26T09:31:41.917Z,99354.21
2023-03-26T09:35:42.316Z,99363.84000000001
2023-03-26T09:39:33.351Z,99370.36
2023-03-26T09:43:39.963Z,99380.81
2023-03-26T09:47:39.818Z,99391.22
2023-03-26T09:51:42.314Z,99398.20999999999
2023-03-26T09:55:42.374Z,99405.5
2023-03-26T09:59:42.320Z,99409.67000000001
2023-03-26T10:03:35.242Z,99415.01
2023-03-26T10:07:40.584Z,99420.9
2023-03-26T10:15:31.035Z,99448.78
2023-03-26T10:19:38.399Z,99457.2
2023-03-26T10:23:39.097Z,99464.34000000001
2023-03-26T10:27:33.743Z,99477.73
2023-03-26T10:31:33.353Z,99481.73000000001
2023-03-26T10:35:36.171Z,99495.19
2023-03-26T10:39:37.780Z,99507.72
2023-03-26T10:43:42.441Z,99523.28
2023-03-26T10:47:40.537Z,99544.36
2023-03-26T10:51:35.370Z,99554.40999999999
2023-03-26T10:55:30.969Z,99569.31
2023-03-26T10:59:25.231Z,99578.17
2023-03-26T11:03:37.682Z,99585.75
2023-03-26T11:07:30.643Z,99596.25
2023-03-26T11:15:28.656Z,99620.97
2023-03-26T11:19:30.510Z,99631.66
2023-03-26T11:23:32.926Z,99639.47
2023-03-26T11:27:31.504Z,99646.89
2023-03-26T11:31:32.721Z,99654.71
2023-03-26T11:35:41.025Z,99666.81999999999
2023-03-26T11:39:26.106Z,99676.03
2023-03-26T11:43:26.968Z,99699.92
2023-03-26T11:47:30.759Z,99705.59
2023-03-26T11:51:28.433Z,99710.19
2023-03-26T11:55:24.439Z,99720.94
2023-03-26T11:59:27.988Z,99727.13
2023-03-26T12:03:23.238Z,99744.47
2023-03-26T12:07:30.787Z,99755.3
2023-03-26T12:15:24.428Z,99768.4
2023-03-26T12:19:23.672Z,99781.94
2023-03-26T12:23:34.891Z,99789.36
2023-03-26T12:27:27.234Z,99798.69
2023-03-26T12:31:25.546Z,99822.61
2023-03-26T12:35:26.109Z,99829.35
2023-03-26T12:40:07.642Z,99833.61
2023-03-26T12:47:58.246Z,99850.87
2023-03-26T12:51:36.862Z,99859.64
2023-03-26T12:55:41.388Z,99865.14
2023-03-26T12:59:31.895Z,99872.58
2023-03-26T13:03:40.770Z,99868.53
2023-03-26T13:11:30.723Z,99878.16
2023-03-26T13:15:30.288Z,99888.01
2023-03-26T13:19:29.379Z,99894.03
2023-03-26T13:23:33.846Z,99894.3
2023-03-26T13:27:33.457Z,99910.58
2023-03-26T13:31:26.939Z,99911.65999999999
2023-03-26T13:35:30.618Z,99925.56
2023-03-26T13:39:30.527Z,99932.05
2023-03-26T13:43:34.628Z,99938.47
2023-03-26T13:47:27.193Z,99947.05
2023-03-26T13:51:29.476Z,99951.42
2023-03-26T13:55:28.455Z,99961.51999999999
2023-03-26T13:59:31.547Z,99978.54999999999
2023-03-26T14:03:28.642Z,99987.84000000001
2023-03-26T14:07:30.323Z,99998.72
2023-03-26T14:11:34.001Z,100001.84000000001
2023-03-26T14:15:27.183Z,100009.56999999999
2023-03-26T14:19:43.057Z,100020.04
2023-03-26T14:23:33.996Z,100023.0
2023-03-26T14:27:39.496Z,100034.28
2023-03-26T14:31:27.861Z,100031.75
2023-03-26T14:35:32.511Z,100048.69
2023-03-26T14:39:33.148Z,100055.72
2023-03-26T14:43:40.925Z,100071.91
2023-03-26T14:47:24.542Z,100077.25
2023-03-26T14:51:36.036Z,100078.34
2023-03-26T14:55:43.142Z,100086.21
2023-03-26T14:59:43.170Z,100091.13
2023-03-26T15:03:47.844Z,100103.34
2023-03-26T15:07:43.612Z,100111.45
2023-03-26T15:11:31.262Z,100116.38
2023-03-26T15:15:42.214Z,100126.56
2023-03-26T15:19:43.198Z,100135.26000000001
2023-03-26T15:23:43.236Z,100146.11
2023-03-26T15:31:41.484Z,100157.83
2023-03-26T15:35:36.936Z,100172.34
2023-03-26T15:39:43.326Z,100182.5
2023-03-26T15:43:28.940Z,100195.87
2023-03-26T15:47:40.602Z,100204.74
2023-03-26T15:51:46.887Z,100213.05
2023-03-26T15:55:30.311Z,100220.68000000001
2023-03-26T15:59:38.042Z,100228.76
2023-03-26T16:03:29.990Z,100236.23999999999
2023-03-26T16:07:38.175Z,100240.71
2023-03-26T16:11:43.374Z,100251.92
2023-03-26T16:15:27.349Z,100260.47
2023-03-26T16:19:35.189Z,100268.42
2023-03-26T16:23:28.270Z,100278.02
2023-03-26T16:27:29.059Z,100287.31
2023-03-26T16:35:38.687Z,100306.98
2023-03-26T16:39:37.995Z,100309.34999999999
2023-03-26T16:43:38.012Z,100310.72
2023-03-26T16:51:33.484Z,100336.03
2023-03-26T16:55:33.638Z,100348.29999999999
2023-03-26T16:59:43.493Z,100355.15000000001
2023-03-26T17:03:32.908Z,100357.12
2023-03-26T17:07:29.008Z,100367.11
2023-03-26T17:11:30.682Z,100377.76
2023-03-26T17:15:33.402Z,100390.02
2023-03-26T17:19:33.540Z,100396.34
2023-03-26T17:23:31.327Z,100409.16
2023-03-26T17:27:33.634Z,100416.03
2023-03-26T17:31:37.379Z,100427.87
2023-03-26T17:35:35.139Z,100433.72
2023-03-26T17:39:45.843Z,100442.38
2023-03-26T17:43:35.399Z,100457.26
2023-03-26T17:47:30.253Z,100466.23
2023-03-26T17:51:39.166Z,100476.29
2023-03-26T17:55:29.868Z,100483.39
2023-03-26T17:59:26.544Z,100499.17
2023-03-26T18:03:30.853Z,100510.70999999999
2023-03-26T18:07:44.119Z,100520.95000000001
2023-03-26T18:11:36.625Z,100522.91
2023-03-26T18:15:34.245Z,100532.92
2023-03-26T18:19:25.576Z,100545.64
2023-03-26T18:23:28.439Z,100549.51999999999
2023-03-26T18:27:28.244Z,100560.0
2023-03-26T18:31:25.793Z,100569.2
2023-03-26T18:35:25.446Z,100573.41
2023-03-26T18:39:24.389Z,100582.64
2023-03-26T18:43:34.509Z,100589.92
2023-03-26T18:47:25.049Z,100598.46
2023-03-26T18:51:25.610Z,100603.05
2023-03-26T19:03:24.487Z,100627.09
2023-03-26T19:07:25.558Z,100631.81
2023-03-26T19:11:25.419Z,100642.02
2023-03-26T19:15:26.113Z,100647.6
2023-03-26T19:19:28.660Z,100658.48999999999
2023-03-26T19:23:27.628Z,100663.04000000001
2023-03-26T19:27:24.201Z,100664.62
2023-03-26T19:31:26.915Z,100672.5
2023-03-26T19:35:24.213Z,100690.41
2023-03-26T19:39:37.389Z,100698.46
2023-03-26T19:43:24.768Z,100699.2
2023-03-26T19:47:43.181Z,100711.44
2023-03-26T19:51:31.414Z,100720.28
2023-03-26T19:55:24.405Z,100726.9
2023-03-26T19:59:24.486Z,100730.16
2023-03-26T20:03:27.598Z,100736.43
2023-03-26T20:11:32.236Z,100740.99
2023-03-26T20:15:27.596Z,100754.94
2023-03-26T20:19:24.877Z,100764.94
2023-03-26T20:23:26.683Z,100773.20999999999
2023-03-26T20:27:24.653Z,100786.49
2023-03-26T20:31:25.624Z,100802.69
2023-03-26T20:35:35.790Z,100807.73000000001
2023-03-26T20:39:24.362Z,100812.41
2023-03-26T20:43:29.122Z,100820.76
2023-03-26T20:47:24.507Z,100823.15999999999
2023-03-26T20:51:25.531Z,100821.25
2023-03-26T20:55:24.759Z,100822.63
2023-03-26T21:07:24.516Z,100826.95
2023-03-26T21:11:33.451Z,100839.03
2023-03-26T21:19:25.074Z,100840.37
2023-03-26T21:23:29.358Z,100851.87
2023-03-26T21:27:30.025Z,100860.04000000001
2023-03-26T21:31:25.454Z,100857.4
2023-03-26T21:35:25.242Z,100861.86
2023-03-26T21:43:25.164Z,100882.7
2023-03-26T21:47:25.253Z,100883.98
2023-03-26T21:51:24.905Z,100893.87000000001
2023-03-26T21:55:25.240Z,100898.0
2023-03-26T21:59:34.793Z,100906.67
2023-03-26T22:03:32.089Z,100916.58
2023-03-26T22:07:29.621Z,100925.8
2023-03-26T22:11:24.956Z,100928.81
2023-03-26T22:15:29.368Z,100934.36
2023-03-26T22:23:25.162Z,100944.81
2023-03-26T22:31:25.439Z,100967.74
2023-03-26T22:35:25.182Z,100970.42
2023-03-26T22:43:25.143Z,100981.08
2023-03-26T22:47:24.691Z,100986.83
2023-03-26T22:51:25.208Z,100996.02
2023-03-26T22:55:28.386Z,100997.36
2023-03-26T22:59:25.369Z,100998.49
2023-03-26T23:03:35.179Z,101006.61
2023-03-26T23:07:24.873Z,101012.33
2023-03-26T23:11:25.327Z,101010.85
2023-03-26T23:15:25.074Z,101018.26999999999
2023-03-26T23:19:24.810Z,101031.84
2023-03-26T23:23:27.698Z,101034.83
2023-03-26T23:27:24.726Z,101045.75
2023-03-26T23:31:26.293Z,101041.69
2023-03-26T23:39:25.691Z,101060.74
2023-03-26T23:43:25.537Z,101072.81
2023-03-26T23:47:26.079Z,101072.64
2023-03-26T23:51:24.953Z,101082.06
2023-03-26T23:55:26.102Z,101081.67
2023-03-26T23:59:24.838Z,101085.97
